sensor_id;sensor_type;location;lat;lon;timestamp;pressure;altitude;pressure_sealevel;temperature;humidity
51781;BME280;37844;57.126;24.288;2023-07-16T00:01:34;101541.72;;;16.76;100.00
51781;BME280;37844;57.126;24.288;2023-07-16T00:04:18;101557.38;;;16.88;100.00
51781;BME280;37844;57.126;24.288;2023-07-16T00:07:02;101548.69;;;16.94;100.00
51781;BME280;37844;57.126;24.288;2023-07-16T00:09:46;101554.78;;;16.94;100.00
51781;BME280;37844;57.126;24.288;2023-07-16T00:12:30;101563.44;;;16.93;100.00
51781;BME280;37844;57.126;24.288;2023-07-16T00:15:14;101563.47;;;16.95;100.00
51781;BME280;37844;57.126;24.288;2023-07-16T00:17:58;101558.25;;;16.93;100.00
51781;BME280;37844;57.126;24.288;2023-07-16T00:20:42;101568.66;;;16.98;100.00
51781;BME280;37844;57.126;24.288;2023-07-16T00:23:26;101560.81;;;17.01;100.00
51781;BME280;37844;57.126;24.288;2023-07-16T00:26:11;101559.13;;;16.79;100.00
51781;BME280;37844;57.126;24.288;2023-07-16T00:28:55;101565.19;;;16.84;100.00
51781;BME280;37844;57.126;24.288;2023-07-16T00:31:39;101566.06;;;16.81;100.00
51781;BME280;37844;57.126;24.288;2023-07-16T00:34:23;101560.81;;;16.77;100.00
51781;BME280;37844;57.126;24.288;2023-07-16T00:37:07;101566.88;;;16.69;100.00
51781;BME280;37844;57.126;24.288;2023-07-16T00:39:51;101569.53;;;16.82;100.00
51781;BME280;37844;57.126;24.288;2023-07-16T00:42:35;101573.88;;;16.86;100.00
51781;BME280;37844;57.126;24.288;2023-07-16T00:45:19;101570.38;;;16.87;100.00
51781;BME280;37844;57.126;24.288;2023-07-16T00:48:05;101573.00;;;16.91;100.00
51781;BME280;37844;57.126;24.288;2023-07-16T00:50:52;101573.88;;;16.86;100.00
51781;BME280;37844;57.126;24.288;2023-07-16T00:53:38;101570.34;;;16.67;100.00
51781;BME280;37844;57.126;24.288;2023-07-16T00:56:23;101560.78;;;16.58;100.00
51781;BME280;37844;57.126;24.288;2023-07-16T00:59:07;101553.84;;;16.56;100.00
51781;BME280;37844;57.126;24.288;2023-07-16T01:01:51;101567.75;;;16.68;100.00
51781;BME280;37844;57.126;24.288;2023-07-16T01:04:35;101566.00;;;16.52;100.00
51781;BME280;37844;57.126;24.288;2023-07-16T01:07:23;101560.78;;;16.46;100.00
51781;BME280;37844;57.126;24.288;2023-07-16T01:10:09;101557.28;;;16.36;100.00
51781;BME280;37844;57.126;24.288;2023-07-16T01:12:55;101553.81;;;16.28;100.00
51781;BME280;37844;57.126;24.288;2023-07-16T01:15:40;101555.53;;;16.32;100.00
51781;BME280;37844;57.126;24.288;2023-07-16T01:18:24;101547.72;;;16.27;100.00
51781;BME280;37844;57.126;24.288;2023-07-16T01:21:08;101550.34;;;16.29;100.00
51781;BME280;37844;57.126;24.288;2023-07-16T01:26:39;101550.31;;;16.21;100.00
51781;BME280;37844;57.126;24.288;2023-07-16T01:29:36;101538.19;;;16.23;100.00
51781;BME280;37844;57.126;24.288;2023-07-16T01:32:24;101539.06;;;16.27;100.00
51781;BME280;37844;57.126;24.288;2023-07-16T01:35:08;101535.56;;;16.20;100.00
51781;BME280;37844;57.126;24.288;2023-07-16T01:37:54;101538.16;;;16.06;100.00
51781;BME280;37844;57.126;24.288;2023-07-16T01:40:38;101544.16;;;15.96;100.00
51781;BME280;37844;57.126;24.288;2023-07-16T01:43:22;101538.97;;;16.01;100.00
51781;BME280;37844;57.126;24.288;2023-07-16T01:46:06;101535.56;;;16.20;100.00
51781;BME280;37844;57.126;24.288;2023-07-16T01:48:51;101534.69;;;16.09;100.00
51781;BME280;37844;57.126;24.288;2023-07-16T01:51:35;101536.41;;;16.13;100.00
51781;BME280;37844;57.126;24.288;2023-07-16T01:54:19;101541.59;;;16.04;100.00
51781;BME280;37844;57.126;24.288;2023-07-16T01:57:03;101527.72;;;16.03;100.00
51781;BME280;37844;57.126;24.288;2023-07-16T01:59:47;101525.97;;;15.93;100.00
51781;BME280;37844;57.126;24.288;2023-07-16T02:02:31;101530.25;;;15.80;100.00
51781;BME280;37844;57.126;24.288;2023-07-16T02:05:16;101526.81;;;15.83;100.00
51781;BME280;37844;57.126;24.288;2023-07-16T02:08:00;101523.34;;;15.85;100.00
51781;BME280;37844;57.126;24.288;2023-07-16T02:10:47;101527.66;;;15.76;100.00
51781;BME280;37844;57.126;24.288;2023-07-16T02:13:32;101530.25;;;15.83;100.00
51781;BME280;37844;57.126;24.288;2023-07-16T02:16:16;101526.78;;;15.80;100.00
51781;BME280;37844;57.126;24.288;2023-07-16T02:19:00;101524.22;;;15.87;100.00
51781;BME280;37844;57.126;24.288;2023-07-16T02:21:43;101524.22;;;15.89;100.00
51781;BME280;37844;57.126;24.288;2023-07-16T02:24:27;101518.09;;;15.76;100.00
51781;BME280;37844;57.126;24.288;2023-07-16T02:27:11;101515.44;;;15.67;100.00
51781;BME280;37844;57.126;24.288;2023-07-16T02:29:55;101516.28;;;15.60;100.00
51781;BME280;37844;57.126;24.288;2023-07-16T02:32:40;101517.22;;;15.74;100.00
51781;BME280;37844;57.126;24.288;2023-07-16T02:35:24;101521.56;;;15.80;100.00
51781;BME280;37844;57.126;24.288;2023-07-16T02:38:08;101519.00;;;15.86;100.00
51781;BME280;37844;57.126;24.288;2023-07-16T02:40:52;101520.78;;;15.95;100.00
51781;BME280;37844;57.126;24.288;2023-07-16T02:43:36;101518.16;;;15.88;100.00
51781;BME280;37844;57.126;24.288;2023-07-16T02:46:20;101523.34;;;15.88;100.00
51781;BME280;37844;57.126;24.288;2023-07-16T02:49:04;101523.34;;;15.85;100.00
51781;BME280;37844;57.126;24.288;2023-07-16T02:51:48;101532.00;;;15.83;100.00
51781;BME280;37844;57.126;24.288;2023-07-16T02:54:34;101525.00;;;15.73;100.00
51781;BME280;37844;57.126;24.288;2023-07-16T02:57:20;101527.59;;;15.73;100.00
51781;BME280;37844;57.126;24.288;2023-07-16T03:00:05;101522.44;;;15.82;100.00
51781;BME280;37844;57.126;24.288;2023-07-16T03:02:49;101536.38;;;15.93;100.00
51781;BME280;37844;57.126;24.288;2023-07-16T03:05:34;101529.47;;;16.00;100.00
51781;BME280;37844;57.126;24.288;2023-07-16T03:08:18;101536.41;;;16.05;100.00
51781;BME280;37844;57.126;24.288;2023-07-16T03:11:01;101539.88;;;16.07;100.00
51781;BME280;37844;57.126;24.288;2023-07-16T03:13:45;101540.78;;;16.25;100.00
51781;BME280;37844;57.126;24.288;2023-07-16T03:16:29;101535.59;;;16.19;100.00
51781;BME280;37844;57.126;24.288;2023-07-16T03:19:13;101526.91;;;16.14;100.00
51781;BME280;37844;57.126;24.288;2023-07-16T03:21:57;101529.47;;;16.18;100.00
51781;BME280;37844;57.126;24.288;2023-07-16T03:24:41;101532.13;;;16.29;100.00
51781;BME280;37844;57.126;24.288;2023-07-16T03:27:25;101538.19;;;16.23;100.00
51781;BME280;37844;57.126;24.288;2023-07-16T03:30:09;101530.38;;;16.26;100.00
51781;BME280;37844;57.126;24.288;2023-07-16T03:32:54;101530.41;;;16.40;100.00
51781;BME280;37844;57.126;24.288;2023-07-16T03:35:37;101532.16;;;16.43;100.00
51781;BME280;37844;57.126;24.288;2023-07-16T03:38:21;101523.47;;;16.39;100.00
51781;BME280;37844;57.126;24.288;2023-07-16T03:41:05;101522.59;;;16.42;100.00
51781;BME280;37844;57.126;24.288;2023-07-16T03:43:49;101515.66;;;16.44;100.00
51781;BME280;37844;57.126;24.288;2023-07-16T03:46:33;101526.09;;;16.59;100.00
51781;BME280;37844;57.126;24.288;2023-07-16T03:49:17;101514.81;;;16.52;100.00
51781;BME280;37844;57.126;24.288;2023-07-16T03:52:01;101525.22;;;16.62;100.00
51781;BME280;37844;57.126;24.288;2023-07-16T03:54:45;101527.84;;;16.69;100.00
51781;BME280;37844;57.126;24.288;2023-07-16T03:57:29;101525.22;;;16.72;100.00
51781;BME280;37844;57.126;24.288;2023-07-16T04:00:13;101528.75;;;16.81;100.00
51781;BME280;37844;57.126;24.288;2023-07-16T04:02:58;101521.81;;;16.87;100.00
51781;BME280;37844;57.126;24.288;2023-07-16T04:05:42;101532.19;;;16.98;100.00
51781;BME280;37844;57.126;24.288;2023-07-16T04:08:26;101518.31;;;17.02;100.00
51781;BME280;37844;57.126;24.288;2023-07-16T04:11:10;101522.63;;;17.09;100.00
51781;BME280;37844;57.126;24.288;2023-07-16T04:13:53;101520.88;;;17.19;100.00
51781;BME280;37844;57.126;24.288;2023-07-16T04:16:37;101519.13;;;17.30;100.00
51781;BME280;37844;57.126;24.288;2023-07-16T04:19:21;101518.22;;;17.39;100.00
51781;BME280;37844;57.126;24.288;2023-07-16T04:22:05;101520.75;;;17.62;100.00
51781;BME280;37844;57.126;24.288;2023-07-16T04:24:49;101518.09;;;17.77;100.00
51781;BME280;37844;57.126;24.288;2023-07-16T04:27:34;101513.72;;;17.84;100.00
51781;BME280;37844;57.126;24.288;2023-07-16T04:30:18;101515.44;;;17.93;100.00
51781;BME280;37844;57.126;24.288;2023-07-16T04:33:01;101516.19;;;18.10;100.00
51781;BME280;37844;57.126;24.288;2023-07-16T04:35:45;101514.38;;;18.25;100.00
51781;BME280;37844;57.126;24.288;2023-07-16T04:38:29;101516.91;;;18.34;100.00
51781;BME280;37844;57.126;24.288;2023-07-16T04:41:26;101512.50;;;18.45;100.00
51781;BME280;37844;57.126;24.288;2023-07-16T04:44:10;101507.22;;;18.54;100.00
51781;BME280;37844;57.126;24.288;2023-07-16T04:46:54;101504.50;;;18.67;100.00
51781;BME280;37844;57.126;24.288;2023-07-16T04:49:38;101507.94;;;18.75;100.00
51781;BME280;37844;57.126;24.288;2023-07-16T04:52:22;101500.81;;;18.91;100.00
51781;BME280;37844;57.126;24.288;2023-07-16T04:55:06;101499.75;;;19.13;100.00
51781;BME280;37844;57.126;24.288;2023-07-16T04:57:50;101503.97;;;19.23;100.00
51781;BME280;37844;57.126;24.288;2023-07-16T05:00:37;101499.50;;;19.36;100.00
51781;BME280;37844;57.126;24.288;2023-07-16T05:03:21;101489.75;;;19.51;100.00
51781;BME280;37844;57.126;24.288;2023-07-16T05:06:06;101490.41;;;19.69;100.00
51781;BME280;37844;57.126;24.288;2023-07-16T05:08:50;101498.94;;;19.82;100.00
51781;BME280;37844;57.126;24.288;2023-07-16T05:11:34;101496.28;;;19.87;97.67
51781;BME280;37844;57.126;24.288;2023-07-16T05:14:18;101494.28;;;20.06;95.81
51781;BME280;37844;57.126;24.288;2023-07-16T05:17:02;101491.41;;;20.23;94.64
51781;BME280;37844;57.126;24.288;2023-07-16T05:19:46;101496.25;;;20.47;91.02
51781;BME280;37844;57.126;24.288;2023-07-16T05:22:30;101495.19;;;20.62;89.68
51781;BME280;37844;57.126;24.288;2023-07-16T05:25:14;101488.75;;;20.80;86.72
51781;BME280;37844;57.126;24.288;2023-07-16T05:27:58;101484.03;;;20.99;85.37
51781;BME280;37844;57.126;24.288;2023-07-16T05:30:42;101474.91;;;21.20;84.56
51781;BME280;37844;57.126;24.288;2023-07-16T05:33:27;101474.66;;;21.32;82.72
51781;BME280;37844;57.126;24.288;2023-07-16T05:36:11;101467.53;;;21.39;79.71
51781;BME280;37844;57.126;24.288;2023-07-16T05:38:55;101470.09;;;21.44;79.60
51781;BME280;37844;57.126;24.288;2023-07-16T05:41:39;101468.03;;;21.58;78.06
51781;BME280;37844;57.126;24.288;2023-07-16T05:44:23;101471.91;;;21.80;76.68
51781;BME280;37844;57.126;24.288;2023-07-16T05:47:07;101464.66;;;21.93;75.47
51781;BME280;37844;57.126;24.288;2023-07-16T05:49:55;101455.53;;;22.08;73.75
51781;BME280;37844;57.126;24.288;2023-07-16T05:52:39;101463.91;;;22.26;72.44
51781;BME280;37844;57.126;24.288;2023-07-16T05:55:23;101461.06;;;22.35;71.96
51781;BME280;37844;57.126;24.288;2023-07-16T05:58:10;101452.38;;;22.67;71.43
51781;BME280;37844;57.126;24.288;2023-07-16T06:00:54;101457.47;;;22.73;69.96
51781;BME280;37844;57.126;24.288;2023-07-16T06:03:38;101444.47;;;23.01;68.54
51781;BME280;37844;57.126;24.288;2023-07-16T06:06:22;101447.75;;;23.39;67.21
51781;BME280;37844;57.126;24.288;2023-07-16T06:09:06;101435.66;;;23.63;65.33
51781;BME280;37844;57.126;24.288;2023-07-16T06:11:50;101448.72;;;23.66;64.53
51781;BME280;37844;57.126;24.288;2023-07-16T06:14:34;101451.59;;;23.88;63.82
51781;BME280;37844;57.126;24.288;2023-07-16T06:17:18;101461.28;;;24.15;62.31
51781;BME280;37844;57.126;24.288;2023-07-16T06:20:03;101452.97;;;24.27;61.44
51781;BME280;37844;57.126;24.288;2023-07-16T06:22:47;101443.59;;;24.71;61.05
51781;BME280;37844;57.126;24.288;2023-07-16T06:25:31;101445.53;;;24.91;60.01
51781;BME280;37844;57.126;24.288;2023-07-16T06:28:15;101439.34;;;25.41;59.65
51781;BME280;37844;57.126;24.288;2023-07-16T06:31:00;101420.81;;;25.65;58.08
51781;BME280;37844;57.126;24.288;2023-07-16T06:33:44;101415.34;;;25.93;56.22
51781;BME280;37844;57.126;24.288;2023-07-16T06:36:30;101410.34;;;25.85;55.52
51781;BME280;37844;57.126;24.288;2023-07-16T06:39:14;101416.75;;;25.79;54.51
51781;BME280;37844;57.126;24.288;2023-07-16T06:41:57;101431.38;;;26.10;54.17
51781;BME280;37844;57.126;24.288;2023-07-16T06:44:41;101431.88;;;26.40;53.24
51781;BME280;37844;57.126;24.288;2023-07-16T06:47:25;101423.13;;;26.60;52.57
51781;BME280;37844;57.126;24.288;2023-07-16T06:50:10;101414.34;;;26.79;52.20
51781;BME280;37844;57.126;24.288;2023-07-16T06:52:54;101404.53;;;27.01;51.89
51781;BME280;37844;57.126;24.288;2023-07-16T06:55:47;101406.59;;;27.53;50.66
51781;BME280;37844;57.126;24.288;2023-07-16T06:58:32;101388.19;;;28.05;50.11
51781;BME280;37844;57.126;24.288;2023-07-16T07:01:19;101401.84;;;28.50;48.33
51781;BME280;37844;57.126;24.288;2023-07-16T07:04:18;101382.34;;;28.84;47.19
51781;BME280;37844;57.126;24.288;2023-07-16T07:07:02;101397.31;;;29.18;46.21
51781;BME280;37844;57.126;24.288;2023-07-16T07:09:49;101389.69;;;29.92;45.69
51781;BME280;37844;57.126;24.288;2023-07-16T07:12:33;101401.13;;;30.08;44.45
51781;BME280;37844;57.126;24.288;2023-07-16T07:15:21;101392.22;;;30.54;44.59
51781;BME280;37844;57.126;24.288;2023-07-16T07:18:04;101393.34;;;31.09;43.54
51781;BME280;37844;57.126;24.288;2023-07-16T07:20:49;101397.56;;;31.54;42.03
51781;BME280;37844;57.126;24.288;2023-07-16T07:23:33;101384.81;;;31.72;41.54
51781;BME280;37844;57.126;24.288;2023-07-16T07:26:17;101386.56;;;32.39;40.99
51781;BME280;37844;57.126;24.288;2023-07-16T07:29:01;101385.34;;;32.57;40.40
51781;BME280;37844;57.126;24.288;2023-07-16T07:31:45;101381.31;;;33.51;39.51
51781;BME280;37844;57.126;24.288;2023-07-16T07:34:29;101386.78;;;33.12;38.57
51781;BME280;37844;57.126;24.288;2023-07-16T07:37:13;101400.78;;;33.16;38.71
51781;BME280;37844;57.126;24.288;2023-07-16T07:39:58;101385.16;;;33.23;38.32
51781;BME280;37844;57.126;24.288;2023-07-16T07:42:43;101371.97;;;33.32;38.23
51781;BME280;37844;57.126;24.288;2023-07-16T07:45:27;101378.94;;;33.83;38.22
51781;BME280;37844;57.126;24.288;2023-07-16T07:48:11;101376.84;;;33.75;38.05
51781;BME280;37844;57.126;24.288;2023-07-16T07:50:55;101369.78;;;34.10;37.33
51781;BME280;37844;57.126;24.288;2023-07-16T07:53:39;101354.78;;;34.54;36.96
51781;BME280;37844;57.126;24.288;2023-07-16T07:56:23;101367.41;;;34.18;37.54
51781;BME280;37844;57.126;24.288;2023-07-16T07:59:07;101341.28;;;34.78;37.47
51781;BME280;37844;57.126;24.288;2023-07-16T08:01:51;101353.59;;;35.03;36.92
51781;BME280;37844;57.126;24.288;2023-07-16T08:04:35;101353.38;;;36.03;36.01
51781;BME280;37844;57.126;24.288;2023-07-16T08:07:19;101350.00;;;36.22;35.67
51781;BME280;37844;57.126;24.288;2023-07-16T08:10:04;101347.72;;;36.48;35.22
51781;BME280;37844;57.126;24.288;2023-07-16T08:12:48;101325.69;;;36.85;35.21
51781;BME280;37844;57.126;24.288;2023-07-16T08:15:32;101336.38;;;36.14;35.01
51781;BME280;37844;57.126;24.288;2023-07-16T08:18:16;101326.00;;;35.67;35.46
51781;BME280;37844;57.126;24.288;2023-07-16T08:21:01;101332.63;;;35.08;35.54
51781;BME280;37844;57.126;24.288;2023-07-16T08:23:51;101312.56;;;34.57;36.36
51781;BME280;37844;57.126;24.288;2023-07-16T08:26:36;101329.09;;;33.82;37.67
51781;BME280;37844;57.126;24.288;2023-07-16T08:29:20;101333.41;;;34.07;37.81
51781;BME280;37844;57.126;24.288;2023-07-16T08:32:05;101316.81;;;33.91;37.41
51781;BME280;37844;57.126;24.288;2023-07-16T08:34:49;101323.94;;;33.44;37.75
51781;BME280;37844;57.126;24.288;2023-07-16T08:37:33;101305.25;;;33.55;38.15
51781;BME280;37844;57.126;24.288;2023-07-16T08:40:17;101295.41;;;33.20;38.41
51781;BME280;37844;57.126;24.288;2023-07-16T08:43:03;101299.88;;;33.44;38.84
51781;BME280;37844;57.126;24.288;2023-07-16T08:45:49;101296.06;;;32.61;39.23
51781;BME280;37844;57.126;24.288;2023-07-16T08:48:34;101293.00;;;31.89;40.41
51781;BME280;37844;57.126;24.288;2023-07-16T08:51:20;101294.53;;;31.93;40.23
51781;BME280;37844;57.126;24.288;2023-07-16T08:54:05;101314.09;;;31.54;40.57
51781;BME280;37844;57.126;24.288;2023-07-16T08:56:50;101297.91;;;31.15;41.41
51781;BME280;37844;57.126;24.288;2023-07-16T08:59:35;101286.34;;;31.29;41.36
51781;BME280;37844;57.126;24.288;2023-07-16T09:02:20;101282.97;;;31.67;41.37
51781;BME280;37844;57.126;24.288;2023-07-16T09:05:05;101287.50;;;31.92;41.16
51781;BME280;37844;57.126;24.288;2023-07-16T09:07:49;101277.41;;;32.23;40.59
51781;BME280;37844;57.126;24.288;2023-07-16T09:10:34;101300.56;;;32.35;40.35
51781;BME280;37844;57.126;24.288;2023-07-16T09:13:18;101281.25;;;32.19;40.40
51781;BME280;37844;57.126;24.288;2023-07-16T09:16:02;101269.09;;;32.27;40.71
51781;BME280;37844;57.126;24.288;2023-07-16T09:18:47;101272.47;;;32.29;40.38
51781;BME280;37844;57.126;24.288;2023-07-16T09:21:31;101266.66;;;32.74;40.18
51781;BME280;37844;57.126;24.288;2023-07-16T09:24:19;101271.72;;;32.66;40.06
51781;BME280;37844;57.126;24.288;2023-07-16T09:27:03;101258.41;;;32.90;39.84
51781;BME280;37844;57.126;24.288;2023-07-16T09:29:48;101265.16;;;32.83;39.30
51781;BME280;37844;57.126;24.288;2023-07-16T09:32:38;101254.41;;;32.95;39.43
51781;BME280;37844;57.126;24.288;2023-07-16T09:35:26;101256.53;;;33.03;39.25
51781;BME280;37844;57.126;24.288;2023-07-16T09:38:10;101239.66;;;33.27;39.58
51781;BME280;37844;57.126;24.288;2023-07-16T09:40:55;101232.72;;;33.24;39.36
51781;BME280;37844;57.126;24.288;2023-07-16T09:43:40;101238.97;;;33.36;39.41
51781;BME280;37844;57.126;24.288;2023-07-16T09:46:24;101231.91;;;32.87;39.54
51781;BME280;37844;57.126;24.288;2023-07-16T09:49:09;101227.84;;;33.18;39.57
51781;BME280;37844;57.126;24.288;2023-07-16T09:51:58;101236.63;;;33.31;39.65
51781;BME280;37844;57.126;24.288;2023-07-16T09:54:45;101230.13;;;32.74;40.32
51781;BME280;37844;57.126;24.288;2023-07-16T09:57:34;101230.59;;;32.56;40.82
51781;BME280;37844;57.126;24.288;2023-07-16T10:00:19;101239.38;;;32.58;41.06
51781;BME280;37844;57.126;24.288;2023-07-16T10:03:11;101236.75;;;32.32;41.56
51781;BME280;37844;57.126;24.288;2023-07-16T10:06:06;101240.13;;;31.83;41.24
51781;BME280;37844;57.126;24.288;2023-07-16T10:08:50;101237.34;;;31.32;43.27
51781;BME280;37844;57.126;24.288;2023-07-16T10:11:36;101231.66;;;30.96;43.04
51781;BME280;37844;57.126;24.288;2023-07-16T10:14:25;101227.59;;;30.91;43.55
51781;BME280;37844;57.126;24.288;2023-07-16T10:17:30;101230.91;;;30.38;44.29
51781;BME280;37844;57.126;24.288;2023-07-16T10:20:14;101221.66;;;30.15;44.87
51781;BME280;37844;57.126;24.288;2023-07-16T10:22:59;101221.00;;;30.12;44.89
51781;BME280;37844;57.126;24.288;2023-07-16T10:26:00;101216.44;;;29.99;45.27
51781;BME280;37844;57.126;24.288;2023-07-16T10:28:44;101232.75;;;29.93;45.44
51781;BME280;37844;57.126;24.288;2023-07-16T10:31:28;101196.78;;;29.73;46.14
51781;BME280;37844;57.126;24.288;2023-07-16T10:34:12;101209.19;;;29.73;46.43
51781;BME280;37844;57.126;24.288;2023-07-16T10:36:56;101193.44;;;29.70;46.56
51781;BME280;37844;57.126;24.288;2023-07-16T10:39:50;101189.47;;;29.91;46.73
51781;BME280;37844;57.126;24.288;2023-07-16T10:42:35;101202.75;;;29.77;46.65
51781;BME280;37844;57.126;24.288;2023-07-16T10:45:19;101188.81;;;29.88;46.79
51781;BME280;37844;57.126;24.288;2023-07-16T10:48:04;101209.19;;;29.73;46.63
51781;BME280;37844;57.126;24.288;2023-07-16T10:50:53;101202.38;;;29.69;47.29
51781;BME280;37844;57.126;24.288;2023-07-16T10:53:41;101168.84;;;29.66;47.01
51781;BME280;37844;57.126;24.288;2023-07-16T10:56:28;101167.63;;;29.72;47.45
51781;BME280;37844;57.126;24.288;2023-07-16T10:59:12;101179.13;;;29.87;47.13
51781;BME280;37844;57.126;24.288;2023-07-16T11:01:58;101167.94;;;29.66;47.29
51781;BME280;37844;57.126;24.288;2023-07-16T11:04:44;101167.06;;;29.67;47.66
51781;BME280;37844;57.126;24.288;2023-07-16T11:07:29;101166.22;;;29.50;47.91
51781;BME280;37844;57.126;24.288;2023-07-16T11:10:17;101159.53;;;29.29;47.71
51781;BME280;37844;57.126;24.288;2023-07-16T11:13:01;101151.88;;;29.38;48.61
51781;BME280;37844;57.126;24.288;2023-07-16T11:15:45;101141.94;;;29.56;48.60
51781;BME280;37844;57.126;24.288;2023-07-16T11:18:30;101153.53;;;29.55;48.70
51781;BME280;37844;57.126;24.288;2023-07-16T11:21:18;101147.50;;;29.82;48.92
51781;BME280;37844;57.126;24.288;2023-07-16T11:24:13;101144.06;;;30.09;48.47
51781;BME280;37844;57.126;24.288;2023-07-16T11:27:00;101141.06;;;30.00;47.19
51781;BME280;37844;57.126;24.288;2023-07-16T11:29:55;101149.03;;;29.86;47.64
51781;BME280;37844;57.126;24.288;2023-07-16T11:32:46;101138.31;;;30.02;47.81
51781;BME280;37844;57.126;24.288;2023-07-16T11:35:32;101140.94;;;30.16;47.72
51781;BME280;37844;57.126;24.288;2023-07-16T11:38:17;101135.09;;;30.26;47.05
51781;BME280;37844;57.126;24.288;2023-07-16T11:41:01;101123.47;;;30.12;46.88
51781;BME280;37844;57.126;24.288;2023-07-16T11:43:45;101141.72;;;30.18;47.12
51781;BME280;37844;57.126;24.288;2023-07-16T11:46:33;101130.97;;;29.91;46.99
51781;BME280;37844;57.126;24.288;2023-07-16T11:49:18;101119.84;;;30.13;47.67
51781;BME280;37844;57.126;24.288;2023-07-16T11:52:02;101128.50;;;30.17;46.97
51781;BME280;37844;57.126;24.288;2023-07-16T11:54:47;101122.22;;;30.18;47.28
51781;BME280;37844;57.126;24.288;2023-07-16T11:57:32;101112.34;;;30.20;47.40
51781;BME280;37844;57.126;24.288;2023-07-16T12:00:16;101133.28;;;30.26;46.98
51781;BME280;37844;57.126;24.288;2023-07-16T12:03:01;101131.38;;;30.28;47.16
51781;BME280;37844;57.126;24.288;2023-07-16T12:05:46;101118.41;;;30.36;47.36
51781;BME280;37844;57.126;24.288;2023-07-16T12:08:30;101122.31;;;30.45;46.78
51781;BME280;37844;57.126;24.288;2023-07-16T12:11:13;101100.47;;;30.40;47.11
51781;BME280;37844;57.126;24.288;2023-07-16T12:13:57;101110.84;;;30.30;46.88
51781;BME280;37844;57.126;24.288;2023-07-16T12:16:41;101105.22;;;30.20;47.30
51781;BME280;37844;57.126;24.288;2023-07-16T12:19:26;101094.41;;;30.23;47.31
51781;BME280;37844;57.126;24.288;2023-07-16T12:22:10;101102.88;;;30.30;47.59
51781;BME280;37844;57.126;24.288;2023-07-16T12:24:54;101114.25;;;30.32;47.26
51781;BME280;37844;57.126;24.288;2023-07-16T12:27:38;101094.91;;;30.30;47.52
51781;BME280;37844;57.126;24.288;2023-07-16T12:30:22;101102.88;;;30.30;47.56
51781;BME280;37844;57.126;24.288;2023-07-16T12:33:07;101101.91;;;30.31;48.07
51781;BME280;37844;57.126;24.288;2023-07-16T12:35:51;101077.00;;;30.32;47.93
51781;BME280;37844;57.126;24.288;2023-07-16T12:38:35;101068.19;;;30.32;48.59
51781;BME280;37844;57.126;24.288;2023-07-16T12:41:19;101073.97;;;30.38;47.91
51781;BME280;37844;57.126;24.288;2023-07-16T12:44:03;101044.53;;;30.27;48.36
51781;BME280;37844;57.126;24.288;2023-07-16T12:46:47;101064.19;;;30.25;48.58
51781;BME280;37844;57.126;24.288;2023-07-16T12:49:32;101050.56;;;30.43;49.17
51781;BME280;37844;57.126;24.288;2023-07-16T12:52:15;101062.13;;;30.57;48.56
51781;BME280;37844;57.126;24.288;2023-07-16T12:55:00;101055.28;;;30.53;48.46
51781;BME280;37844;57.126;24.288;2023-07-16T12:57:43;101043.78;;;30.52;48.39
51781;BME280;37844;57.126;24.288;2023-07-16T13:00:27;101053.28;;;30.56;48.83
51781;BME280;37844;57.126;24.288;2023-07-16T13:03:12;101048.50;;;30.61;48.71
51781;BME280;37844;57.126;24.288;2023-07-16T13:05:59;101045.84;;;30.61;48.47
51781;BME280;37844;57.126;24.288;2023-07-16T13:08:44;101042.44;;;30.59;48.81
51781;BME280;37844;57.126;24.288;2023-07-16T13:11:28;101025.56;;;30.46;48.52
51781;BME280;37844;57.126;24.288;2023-07-16T13:14:12;101026.53;;;30.45;48.95
51781;BME280;37844;57.126;24.288;2023-07-16T13:16:55;101025.09;;;30.39;49.23
51781;BME280;37844;57.126;24.288;2023-07-16T13:19:40;101043.84;;;30.38;49.55
51781;BME280;37844;57.126;24.288;2023-07-16T13:22:24;101033.31;;;30.36;49.50
51781;BME280;37844;57.126;24.288;2023-07-16T13:25:07;101044.78;;;30.37;49.32
51781;BME280;37844;57.126;24.288;2023-07-16T13:27:52;101028.66;;;30.40;49.70
51781;BME280;37844;57.126;24.288;2023-07-16T13:30:37;101018.44;;;30.47;49.72
51781;BME280;37844;57.126;24.288;2023-07-16T13:33:21;101023.56;;;30.50;49.82
51781;BME280;37844;57.126;24.288;2023-07-16T13:36:06;101012.47;;;30.43;49.45
51781;BME280;37844;57.126;24.288;2023-07-16T13:38:50;100997.19;;;30.59;49.90
51781;BME280;37844;57.126;24.288;2023-07-16T13:41:34;100997.50;;;30.68;49.46
51781;BME280;37844;57.126;24.288;2023-07-16T13:44:18;100997.66;;;30.79;50.05
51781;BME280;37844;57.126;24.288;2023-07-16T13:47:02;100979.59;;;30.84;49.49
51781;BME280;37844;57.126;24.288;2023-07-16T13:49:47;100994.06;;;30.93;49.89
51781;BME280;37844;57.126;24.288;2023-07-16T13:52:31;100990.22;;;30.84;49.80
51781;BME280;37844;57.126;24.288;2023-07-16T13:55:15;100987.72;;;30.68;49.58
51781;BME280;37844;57.126;24.288;2023-07-16T13:57:58;100987.84;;;30.67;49.58
51781;BME280;37844;57.126;24.288;2023-07-16T14:00:43;100977.94;;;30.81;49.63
51781;BME280;37844;57.126;24.288;2023-07-16T14:03:27;100976.56;;;30.76;49.69
51781;BME280;37844;57.126;24.288;2023-07-16T14:06:12;100979.78;;;30.81;49.18
51781;BME280;37844;57.126;24.288;2023-07-16T14:08:56;100976.28;;;30.93;49.27